createdAt,value
2019-06-07T00:00:38.252Z,16.08
2019-06-07T00:02:51.769Z,16.12
2019-06-07T00:05:19.985Z,16.08
2019-06-07T00:07:46.643Z,16.00
2019-06-07T00:10:32.630Z,15.99
2019-06-07T00:12:41.702Z,16.00
2019-06-07T00:15:11.641Z,15.93
2019-06-07T00:17:36.572Z,15.82
2019-06-07T00:20:03.990Z,15.82
2019-06-07T00:22:33.435Z,15.86
2019-06-07T00:24:58.830Z,15.80
2019-06-07T00:27:26.227Z,15.75
2019-06-07T00:29:53.641Z,15.68
2019-06-07T00:32:22.053Z,15.70
2019-06-07T00:34:48.499Z,15.68
2019-06-07T00:37:16.407Z,15.63
2019-06-07T00:39:43.384Z,15.63
2019-06-07T00:42:11.474Z,15.59
2019-06-07T00:44:38.272Z,15.53
2019-06-07T00:47:05.667Z,15.50
2019-06-07T00:49:40.957Z,15.52
2019-06-07T00:52:00.503Z,15.53
2019-06-07T00:54:28.090Z,15.59
2019-06-07T00:56:55.496Z,15.66
2019-06-07T00:59:28.829Z,15.56
2019-06-07T01:01:50.428Z,15.50
2019-06-07T01:04:19.394Z,15.47
2019-06-07T01:06:45.245Z,15.42
2019-06-07T01:09:12.887Z,15.35
2019-06-07T01:11:40.151Z,15.31
2019-06-07T01:14:07.548Z,15.35
2019-06-07T01:16:55.797Z,15.39
2019-06-07T01:19:02.472Z,15.42
2019-06-07T01:21:30.119Z,15.50
2019-06-07T01:24:11.452Z,15.51
2019-06-07T01:26:26.948Z,15.45
2019-06-07T01:28:52.123Z,15.42
2019-06-07T01:31:21.129Z,15.38
2019-06-07T01:33:50.957Z,15.32
2019-06-07T01:36:14.506Z,15.21
2019-06-07T01:38:41.982Z,15.20
2019-06-07T01:41:09.439Z,15.22
2019-06-07T01:43:36.853Z,15.25
2019-06-07T01:46:04.383Z,15.31
2019-06-07T01:48:48.461Z,15.29
2019-06-07T01:50:59.218Z,15.32
2019-06-07T01:53:29.127Z,15.35
2019-06-07T01:55:54.066Z,15.40
2019-06-07T01:58:22.231Z,15.46
2019-06-07T02:00:48.945Z,15.48
2019-06-07T02:03:18.368Z,15.54
2019-06-07T02:05:44.364Z,15.63
2019-06-07T02:08:11.806Z,15.70
2019-06-07T02:10:39.223Z,15.76
2019-06-07T02:13:06.663Z,15.69
2019-06-07T02:15:36.770Z,15.60
2019-06-07T02:18:01.596Z,15.63
2019-06-07T02:20:32.112Z,15.59
2019-06-07T02:22:56.684Z,15.54
2019-06-07T02:25:48.450Z,15.57
2019-06-07T02:27:51.639Z,15.62
2019-06-07T02:32:46.665Z,15.47
2019-06-07T02:35:14.176Z,15.45
2019-06-07T02:37:41.682Z,15.43
2019-06-07T02:40:09.150Z,15.53
2019-06-07T02:42:42.251Z,15.63
2019-06-07T02:45:04.939Z,15.60
2019-06-07T02:47:36.041Z,15.62
2019-06-07T02:49:59.872Z,15.62
2019-06-07T02:52:31.616Z,15.62
2019-06-07T02:54:54.923Z,15.54
2019-06-07T02:57:24.997Z,15.52
2019-06-07T03:00:06.463Z,15.52
2019-06-07T03:02:17.382Z,15.54
2019-06-07T03:04:45.142Z,15.61
2019-06-07T03:07:12.434Z,15.67
2019-06-07T03:09:40.165Z,15.56
2019-06-07T03:12:07.432Z,15.61
2019-06-07T03:14:35.281Z,15.73
2019-06-07T03:19:58.471Z,15.95
2019-06-07T03:22:26.724Z,15.78
2019-06-07T03:24:53.398Z,15.67
2019-06-07T03:27:34.903Z,15.61
2019-06-07T03:29:48.386Z,15.59
2019-06-07T03:32:15.861Z,15.58
2019-06-07T03:34:44.015Z,15.58
2019-06-07T03:37:10.847Z,15.48
2019-06-07T03:39:40.912Z,15.48
2019-06-07T03:42:08.387Z,15.48
2019-06-07T03:44:36.408Z,15.45
2019-06-07T03:47:00.844Z,15.41
2019-06-07T03:49:30.737Z,15.41
2019-06-07T03:51:55.779Z,15.50
2019-06-07T03:54:23.236Z,15.55
2019-06-07T03:56:50.771Z,15.53
2019-06-07T03:59:18.242Z,15.53
2019-06-07T04:01:45.798Z,15.56
2019-06-07T04:04:13.247Z,15.64
2019-06-07T04:06:42.398Z,15.63
2019-06-07T04:09:08.321Z,15.65
2019-06-07T04:11:39.095Z,15.66
2019-06-07T04:14:03.307Z,15.74
2019-06-07T04:16:34.641Z,15.79
2019-06-07T04:18:58.566Z,15.77
2019-06-07T04:21:26.103Z,15.72
2019-06-07T04:23:53.582Z,15.63
2019-06-07T04:26:21.069Z,15.50
2019-06-07T04:29:31.520Z,15.66
2019-06-07T04:31:16.027Z,15.79
2019-06-07T04:33:43.904Z,15.87
2019-06-07T04:36:10.964Z,15.83
2019-06-07T04:38:40.558Z,15.85
2019-06-07T04:41:06.086Z,15.89
2019-06-07T04:43:33.606Z,15.90
2019-06-07T04:46:01.098Z,15.81
2019-06-07T04:48:30.918Z,15.86
2019-06-07T04:50:56.152Z,15.89
2019-06-07T04:53:23.613Z,16.03
2019-06-07T04:55:51.088Z,15.88
2019-06-07T04:58:18.601Z,15.76
2019-06-07T05:00:53.240Z,15.91
2019-06-07T05:03:13.599Z,15.97
2019-06-07T05:05:43.674Z,16.05
2019-06-07T05:08:27.119Z,16.12
2019-06-07T05:10:38.228Z,16.16
2019-06-07T05:13:03.731Z,16.04
2019-06-07T05:15:32.057Z,16.13
2019-06-07T05:17:58.812Z,16.23
2019-06-07T05:20:26.471Z,16.30
2019-06-07T05:22:53.972Z,16.37
2019-06-07T05:25:21.448Z,16.38
2019-06-07T05:27:48.922Z,16.41
2019-06-07T05:32:58.865Z,16.33
2019-06-07T05:35:26.369Z,16.30
2019-06-07T05:37:53.842Z,16.34
2019-06-07T05:40:21.582Z,16.48
2019-06-07T05:42:48.835Z,16.61
2019-06-07T05:45:16.291Z,16.55
2019-06-07T05:47:50.277Z,16.36
2019-06-07T05:50:38.581Z,16.35
2019-06-07T05:52:42.432Z,16.37
2019-06-07T05:55:07.202Z,16.42
2019-06-07T05:57:38.089Z,16.47
2019-06-07T06:00:02.235Z,16.57
2019-06-07T06:02:29.707Z,16.64
2019-06-07T06:04:57.225Z,16.70
2019-06-07T06:07:24.863Z,16.73
2019-06-07T06:09:52.318Z,16.83
2019-06-07T06:12:34.175Z,17.09
2019-06-07T06:14:47.353Z,17.21
2019-06-07T06:17:14.831Z,17.21
2019-06-07T06:19:48.872Z,17.39
2019-06-07T06:22:09.824Z,17.53
2019-06-07T06:24:37.645Z,17.43
2019-06-07T06:27:28.289Z,17.41
2019-06-07T06:29:31.868Z,17.18
2019-06-07T06:34:26.883Z,17.17
2019-06-07T06:36:54.330Z,17.42
2019-06-07T06:39:21.836Z,17.49
2019-06-07T06:41:58.607Z,17.62
2019-06-07T06:44:16.821Z,17.68
2019-06-07T06:46:49.101Z,17.75
2019-06-07T06:49:12.001Z,17.62
2019-06-07T06:51:41.714Z,17.67
2019-06-07T06:54:07.009Z,17.68
2019-06-07T06:56:34.540Z,17.88
2019-06-07T07:01:29.750Z,18.09
2019-06-07T07:04:11.377Z,18.06
2019-06-07T07:06:26.764Z,17.89
2019-06-07T07:08:53.439Z,18.14
2019-06-07T07:11:23.119Z,18.30
2019-06-07T07:13:49.884Z,18.42
2019-06-07T07:16:14.468Z,18.75
2019-06-07T07:18:41.774Z,18.62
2019-06-07T07:21:08.486Z,18.78
2019-06-07T07:23:35.476Z,18.73
2019-06-07T07:26:02.454Z,18.79
2019-06-07T07:28:29.475Z,19.32
2019-06-07T07:30:57.148Z,19.08
2019-06-07T07:33:23.638Z,18.47
2019-06-07T07:36:10.858Z,18.40
2019-06-07T07:38:17.718Z,18.47
2019-06-07T07:43:11.818Z,18.98
2019-06-07T07:45:38.962Z,18.69
2019-06-07T07:48:15.483Z,18.44
2019-06-07T07:50:33.146Z,18.91
2019-06-07T07:53:00.862Z,19.43
2019-06-07T07:55:27.277Z,19.81
2019-06-07T07:58:01.139Z,20.03
2019-06-07T08:02:48.957Z,20.92
2019-06-07T08:05:23.488Z,20.95
2019-06-07T08:07:43.035Z,21.09
2019-06-07T08:10:10.172Z,21.81
2019-06-07T08:12:55.798Z,21.88
2019-06-07T08:15:05.148Z,21.73
2019-06-07T08:17:32.172Z,21.24
2019-06-07T08:20:02.808Z,20.75
2019-06-07T08:22:26.231Z,20.75
2019-06-07T08:24:55.301Z,21.00
2019-06-07T08:27:26.277Z,21.11
2019-06-07T08:30:13.903Z,21.05
2019-06-07T08:32:14.890Z,21.32
2019-06-07T08:34:41.915Z,21.61
2019-06-07T08:37:09.943Z,21.43
2019-06-07T08:39:59.664Z,21.78
2019-06-07T08:42:36.576Z,21.62
2019-06-07T08:44:53.593Z,20.93
2019-06-07T08:47:20.874Z,20.46
2019-06-07T08:49:45.873Z,20.45
2019-06-07T08:52:13.436Z,20.46
2019-06-07T08:54:40.495Z,20.61
2019-06-07T08:57:20.777Z,20.73
2019-06-07T08:59:34.571Z,20.73
2019-06-07T09:02:06.662Z,21.23
2019-06-07T09:04:28.597Z,21.58
2019-06-07T09:07:07.359Z,20.96
2019-06-07T09:09:22.710Z,20.74
2019-06-07T09:11:49.699Z,21.06
2019-06-07T09:14:16.699Z,21.11
2019-06-07T09:16:43.683Z,21.30
2019-06-07T09:19:11.323Z,21.00
2019-06-07T09:21:37.784Z,21.00
2019-06-07T09:24:11.357Z,21.44
2019-06-07T09:26:31.886Z,21.94
2019-06-07T09:29:01.289Z,22.19
2019-06-07T09:31:50.358Z,22.01
2019-06-07T09:33:53.942Z,21.81
2019-06-07T09:36:21.173Z,21.38
2019-06-07T09:38:48.258Z,21.39
2019-06-07T09:41:15.429Z,21.33
2019-06-07T09:46:15.261Z,21.99
2019-06-07T09:51:09.519Z,22.19
2019-06-07T09:53:31.138Z,22.14
2019-06-07T09:56:02.913Z,22.21
2019-06-07T10:00:52.323Z,22.58
2019-06-07T10:03:22.380Z,22.90
2019-06-07T10:05:47.328Z,23.08
2019-06-07T10:09:14.994Z,22.98
2019-06-07T10:10:43.162Z,23.04
2019-06-07T10:13:10.298Z,23.05
2019-06-07T10:15:37.546Z,22.92
2019-06-07T10:18:05.234Z,22.89
2019-06-07T10:20:32.777Z,23.00
2019-06-07T10:23:01.604Z,23.35
2019-06-07T10:25:27.919Z,23.62
2019-06-07T10:27:56.042Z,23.31
2019-06-07T10:30:23.581Z,22.90
2019-06-07T10:32:52.414Z,22.99
2019-06-07T10:35:19.955Z,23.27
2019-06-07T10:37:47.556Z,23.67
2019-06-07T10:40:15.086Z,23.60
2019-06-07T10:42:42.553Z,23.30
2019-06-07T10:45:12.176Z,23.48
2019-06-07T10:47:38.469Z,23.49
2019-06-07T10:50:06.054Z,23.69
2019-06-07T10:52:33.552Z,24.04
2019-06-07T10:55:02.512Z,24.19
2019-06-07T10:57:29.415Z,23.98
2019-06-07T10:59:56.892Z,23.69
2019-06-07T11:02:24.542Z,23.55
2019-06-07T11:04:52.051Z,23.88
2019-06-07T11:07:19.551Z,24.17
2019-06-07T11:09:47.197Z,24.18
2019-06-07T11:12:15.284Z,24.26
2019-06-07T11:14:42.544Z,24.18
2019-06-07T11:17:11.343Z,24.38
2019-06-07T11:19:37.571Z,24.27
2019-06-07T11:22:06.074Z,24.28
2019-06-07T11:24:32.607Z,24.44
2019-06-07T11:27:00.095Z,24.24
2019-06-07T11:29:27.870Z,24.28
2019-06-07T11:31:55.348Z,24.74
2019-06-07T11:34:22.936Z,24.42
2019-06-07T11:36:51.163Z,24.34
2019-06-07T11:39:18.898Z,24.62
2019-06-07T11:41:46.086Z,24.70
2019-06-07T11:44:15.016Z,25.01
2019-06-07T11:46:42.063Z,25.30
2019-06-07T11:49:10.890Z,25.19
2019-06-07T11:51:37.071Z,24.92
2019-06-07T11:54:04.615Z,24.95
2019-06-07T11:56:32.367Z,25.13
2019-06-07T11:58:59.876Z,25.04
2019-06-07T12:01:27.402Z,25.09
2019-06-07T12:03:54.455Z,25.30
2019-06-07T12:06:21.629Z,25.52
2019-06-07T12:08:49.119Z,25.93
2019-06-07T12:11:16.978Z,26.19
2019-06-07T12:13:44.052Z,26.44
2019-06-07T12:16:11.309Z,26.25
2019-06-07T12:18:38.173Z,26.00
2019-06-07T12:21:05.175Z,25.58
2019-06-07T12:23:32.259Z,25.64
2019-06-07T12:25:59.437Z,26.06
2019-06-07T12:28:26.463Z,26.18
2019-06-07T12:30:55.218Z,26.50
2019-06-07T12:33:21.727Z,26.56
2019-06-07T12:35:49.115Z,26.68
2019-06-07T12:38:17.336Z,26.80
2019-06-07T12:40:56.856Z,26.50
2019-06-07T12:43:12.370Z,26.24
2019-06-07T12:45:44.955Z,26.20
2019-06-07T12:48:07.762Z,27.04
2019-06-07T12:50:42.750Z,27.84
2019-06-07T12:53:02.845Z,27.99
2019-06-07T12:55:30.323Z,28.11
2019-06-07T12:57:57.790Z,28.31
2019-06-07T13:00:25.251Z,28.63
2019-06-07T13:02:52.775Z,28.75
2019-06-07T13:05:21.658Z,28.87
2019-06-07T13:07:47.756Z,29.27
2019-06-07T13:10:15.658Z,29.46
2019-06-07T13:12:44.086Z,29.46
2019-06-07T13:15:09.617Z,29.49
2019-06-07T13:17:37.112Z,29.73
2019-06-07T13:20:05.376Z,29.76
2019-06-07T13:22:32.867Z,29.74
2019-06-07T13:25:00.327Z,29.51
2019-06-07T13:27:31.923Z,29.44
2019-06-07T13:29:55.593Z,29.41
2019-06-07T13:32:23.746Z,29.23
2019-06-07T13:34:51.164Z,29.46
2019-06-07T13:37:19.635Z,29.25
2019-06-07T13:39:46.171Z,29.22
2019-06-07T13:42:13.994Z,29.30
2019-06-07T13:44:40.988Z,29.24
2019-06-07T13:47:08.016Z,29.21
2019-06-07T13:49:35.026Z,29.50
2019-06-07T13:52:02.093Z,29.53
2019-06-07T13:54:29.711Z,29.29
2019-06-07T13:57:02.406Z,29.09
2019-06-07T13:59:26.344Z,29.28
2019-06-07T14:01:52.514Z,29.25
2019-06-07T14:04:20.917Z,29.08
2019-06-07T14:06:47.627Z,29.03
2019-06-07T14:09:15.098Z,29.08
2019-06-07T14:11:50.752Z,29.14
2019-06-07T14:14:10.100Z,29.24
2019-06-07T14:16:37.582Z,29.26
2019-06-07T14:19:05.037Z,29.31
2019-06-07T14:21:32.524Z,29.31
2019-06-07T14:24:00.058Z,29.20
2019-06-07T14:26:27.536Z,29.08
2019-06-07T14:28:55.007Z,28.53
2019-06-07T14:31:24.394Z,28.25
2019-06-07T14:33:49.559Z,27.76
2019-06-07T14:36:17.105Z,27.44
2019-06-07T14:38:44.566Z,27.30
2019-06-07T14:41:12.078Z,27.20
2019-06-07T14:43:39.666Z,27.21
2019-06-07T14:46:07.109Z,27.17
2019-06-07T14:48:34.637Z,27.15
2019-06-07T14:51:02.147Z,26.77
2019-06-07T14:53:30.842Z,26.20
2019-06-07T14:55:57.168Z,25.99
2019-06-07T14:58:25.021Z,25.74
2019-06-07T15:00:52.158Z,26.11
2019-06-07T15:03:19.620Z,26.10
2019-06-07T15:05:47.121Z,26.28
2019-06-07T15:08:14.625Z,26.17
2019-06-07T15:10:42.181Z,26.12
2019-06-07T15:13:09.701Z,26.28
2019-06-07T15:15:37.208Z,26.17
2019-06-07T15:18:04.673Z,26.33
2019-06-07T15:20:32.270Z,26.32
2019-06-07T15:23:00.097Z,25.86
2019-06-07T15:25:29.067Z,25.86
2019-06-07T15:27:55.202Z,25.92
2019-06-07T15:30:22.774Z,26.02
2019-06-07T15:32:50.245Z,25.72
2019-06-07T15:35:17.746Z,26.02
2019-06-07T15:37:45.314Z,26.21
2019-06-07T15:40:13.252Z,26.26
2019-06-07T15:42:52.049Z,26.16
2019-06-07T15:45:08.244Z,25.94
2019-06-07T15:47:35.942Z,25.82
2019-06-07T15:50:10.640Z,25.44
2019-06-07T15:52:38.856Z,25.25
2019-06-07T15:55:06.454Z,24.97
2019-06-07T15:57:35.150Z,24.87
2019-06-07T16:00:01.655Z,24.93
2019-06-07T16:02:29.075Z,24.64
2019-06-07T16:04:56.539Z,24.54
2019-06-07T16:07:23.980Z,24.26
2019-06-07T16:09:51.470Z,23.96
2019-06-07T16:12:19.651Z,23.79
2019-06-07T16:14:47.137Z,23.52
2019-06-07T16:17:14.656Z,23.37
2019-06-07T16:19:44.942Z,23.30
2019-06-07T16:22:10.117Z,22.90
2019-06-07T16:24:37.722Z,22.73
2019-06-07T16:27:05.212Z,22.68
2019-06-07T16:29:32.696Z,22.55
2019-06-07T16:32:00.163Z,22.51
2019-06-07T16:34:27.647Z,22.37
2019-06-07T16:36:55.283Z,22.30
2019-06-07T16:39:22.785Z,22.15
2019-06-07T16:41:50.291Z,22.14
2019-06-07T16:44:17.805Z,22.21
2019-06-07T16:46:45.303Z,22.00
2019-06-07T16:49:12.789Z,21.95
2019-06-07T16:51:41.287Z,22.07
2019-06-07T16:54:07.763Z,22.03
2019-06-07T16:56:35.291Z,22.12
2019-06-07T16:59:02.771Z,22.16
2019-06-07T17:01:30.327Z,22.15
2019-06-07T17:03:57.838Z,22.01
2019-06-07T17:06:25.452Z,21.96
2019-06-07T17:08:52.970Z,21.68
2019-06-07T17:11:20.483Z,21.63
2019-06-07T17:13:48.562Z,21.37
2019-06-07T17:16:15.641Z,21.40
2019-06-07T17:18:43.143Z,21.07
2019-06-07T17:21:10.612Z,20.96
2019-06-07T17:23:39.116Z,20.68
2019-06-07T17:26:05.603Z,20.52
2019-06-07T17:28:33.203Z,20.50
2019-06-07T17:33:34.526Z,20.20
2019-06-07T17:36:02.076Z,20.22
2019-06-07T17:38:29.581Z,20.28
2019-06-07T17:40:57.103Z,20.28
2019-06-07T17:43:24.622Z,20.29
2019-06-07T17:45:52.115Z,20.09
2019-06-07T17:48:19.568Z,19.94
2019-06-07T17:50:47.800Z,20.05
2019-06-07T17:53:15.411Z,20.09
2019-06-07T17:55:44.110Z,19.97
2019-06-07T17:58:10.556Z,19.95
2019-06-07T18:00:44.639Z,19.88
2019-06-07T18:03:12.002Z,19.88
2019-06-07T18:05:39.543Z,19.79
2019-06-07T18:08:07.028Z,19.73
2019-06-07T18:10:35.533Z,19.78
2019-06-07T18:13:02.995Z,19.92
2019-06-07T18:15:40.169Z,20.03
2019-06-07T18:18:07.697Z,19.96
2019-06-07T18:20:35.152Z,19.81
2019-06-07T18:23:02.640Z,19.75
2019-06-07T18:25:30.166Z,19.77
2019-06-07T18:27:58.941Z,19.87
2019-06-07T18:30:25.194Z,19.80
2019-06-07T18:32:52.952Z,19.83
2019-06-07T18:35:20.142Z,19.83
2019-06-07T18:37:48.867Z,19.82
2019-06-07T18:40:15.101Z,19.88
2019-06-07T18:42:42.570Z,19.92
2019-06-07T18:45:10.027Z,19.93
2019-06-07T18:47:37.519Z,19.90
2019-06-07T18:50:05.017Z,19.93
2019-06-07T18:52:32.563Z,19.95
2019-06-07T18:55:00.129Z,19.96
2019-06-07T18:57:27.615Z,19.84
2019-06-07T18:59:56.436Z,19.69
2019-06-07T19:02:22.623Z,19.76
2019-06-07T19:04:50.600Z,19.75
2019-06-07T19:07:17.674Z,19.70
2019-06-07T19:09:45.257Z,19.56
2019-06-07T19:12:12.750Z,19.48
2019-06-07T19:14:40.275Z,19.45
2019-06-07T19:17:07.792Z,19.33
2019-06-07T19:19:35.294Z,19.13
2019-06-07T19:22:03.128Z,19.06
2019-06-07T19:24:30.581Z,19.01
2019-06-07T19:26:58.700Z,18.93
2019-06-07T19:29:25.761Z,18.80
2019-06-07T19:31:53.267Z,18.71
2019-06-07T19:34:20.721Z,18.49
2019-06-07T19:36:49.147Z,18.43
2019-06-07T19:39:15.696Z,18.35
2019-06-07T19:41:43.155Z,18.36
2019-06-07T19:44:10.635Z,18.33
2019-06-07T19:46:38.195Z,18.31
2019-06-07T19:49:05.807Z,18.30
2019-06-07T19:51:33.289Z,18.32
2019-06-07T19:54:01.774Z,18.33
2019-06-07T19:56:28.304Z,18.39
2019-06-07T19:58:55.755Z,18.46
2019-06-07T20:01:23.309Z,18.57
2019-06-07T20:03:50.812Z,18.53
2019-06-07T20:06:18.440Z,18.52
2019-06-07T20:08:45.907Z,18.52
2019-06-07T20:11:13.502Z,18.63
2019-06-07T20:13:40.994Z,18.66
2019-06-07T20:16:08.438Z,18.59
2019-06-07T20:18:35.898Z,18.50
2019-06-07T20:21:04.824Z,18.58
2019-06-07T20:23:31.046Z,18.49
2019-06-07T20:25:58.500Z,18.31
2019-06-07T20:28:26.822Z,18.20
2019-06-07T20:30:54.304Z,18.18
2019-06-07T20:33:21.820Z,18.08
2019-06-07T20:35:49.328Z,18.15
2019-06-07T20:38:16.803Z,18.23
2019-06-07T20:40:44.368Z,18.22
2019-06-07T20:43:11.835Z,18.23
2019-06-07T20:45:39.298Z,18.15
2019-06-07T20:48:08.305Z,18.10
2019-06-07T20:50:34.469Z,18.04
2019-06-07T20:53:03.162Z,18.09
2019-06-07T20:55:29.512Z,18.04
2019-06-07T20:57:57.099Z,18.15
2019-06-07T21:00:24.572Z,18.06
2019-06-07T21:02:52.028Z,18.08
2019-06-07T21:05:19.497Z,18.03
2019-06-07T21:07:46.949Z,17.90
2019-06-07T21:10:14.438Z,17.82
2019-06-07T21:12:41.979Z,17.80
2019-06-07T21:15:12.834Z,17.88
2019-06-07T21:17:36.988Z,18.00
2019-06-07T21:20:07.059Z,17.99
2019-06-07T21:22:32.132Z,18.02
2019-06-07T21:25:00.669Z,17.79
2019-06-07T21:27:27.258Z,17.57
2019-06-07T21:29:54.746Z,17.62
2019-06-07T21:32:22.190Z,17.58
2019-06-07T21:34:49.738Z,17.49
2019-06-07T21:37:18.176Z,17.52
2019-06-07T21:39:45.627Z,17.48
2019-06-07T21:42:13.095Z,17.42
2019-06-07T21:44:40.682Z,17.36
2019-06-07T21:47:08.488Z,17.29
2019-06-07T21:49:35.712Z,17.22
2019-06-07T21:52:04.323Z,17.25
2019-06-07T21:54:30.822Z,17.20
2019-06-07T21:56:58.400Z,17.28
2019-06-07T21:59:25.917Z,17.24
2019-06-07T22:01:53.435Z,17.19
2019-06-07T22:04:20.906Z,17.13
2019-06-07T22:06:48.361Z,17.05
2019-06-07T22:09:15.874Z,17.01
2019-06-07T22:11:43.347Z,17.03
2019-06-07T22:14:10.823Z,17.08
2019-06-07T22:16:38.763Z,17.14
2019-06-07T22:19:06.545Z,17.16
2019-06-07T22:21:33.738Z,17.15
2019-06-07T22:24:01.202Z,17.22
2019-06-07T22:26:28.876Z,17.29
2019-06-07T22:28:56.361Z,17.24
2019-06-07T22:31:23.863Z,17.13
2019-06-07T22:33:52.331Z,17.13
2019-06-07T22:36:19.959Z,17.18
2019-06-07T22:38:47.527Z,17.23
2019-06-07T22:41:15.899Z,17.21
2019-06-07T22:43:42.562Z,16.99
2019-06-07T22:46:10.846Z,16.67
2019-06-07T22:48:37.606Z,16.60
2019-06-07T22:51:07.265Z,16.53
2019-06-07T22:53:32.807Z,16.55
2019-06-07T22:56:01.252Z,16.66
2019-06-07T22:58:28.778Z,16.72
2019-06-07T23:00:56.223Z,16.72
2019-06-07T23:03:23.717Z,16.73
2019-06-07T23:05:51.198Z,16.68
2019-06-07T23:08:19.087Z,16.43
2019-06-07T23:10:46.178Z,16.31
2019-06-07T23:13:13.821Z,16.27
2019-06-07T23:15:41.392Z,16.23
2019-06-07T23:18:09.378Z,16.14
2019-06-07T23:20:36.510Z,16.07
2019-06-07T23:23:04.007Z,15.99
2019-06-07T23:25:31.464Z,15.90
2019-06-07T23:27:58.940Z,15.85
2019-06-07T23:30:26.426Z,15.75
2019-06-07T23:32:54.285Z,15.77
2019-06-07T23:35:21.774Z,15.71
2019-06-07T23:37:49.359Z,15.74
2019-06-07T23:40:17.344Z,15.82
2019-06-07T23:42:44.362Z,15.81
2019-06-07T23:45:13.646Z,15.80
2019-06-07T23:47:39.707Z,15.92
2019-06-07T23:50:07.247Z,15.99
2019-06-07T23:52:34.703Z,15.79
2019-06-07T23:55:02.255Z,15.71
2019-06-07T23:57:29.748Z,15.58
2019-06-07T23:59:57.295Z,15.64
